Time;durP1;ratioP1;P1;durP2;ratioP2;P2;SDS_P1;SDS_P2;PMS_P1;PMS_P2;Temp;Humidity;BMP_temperature;BMP_pressure;BME280_temperature;BME280_humidity;BME280_pressure;Samples;Min_cycle;Max_cycle;Signal;HPM_P1;HPM_P2
2022/12/07 00:00:43;;;;;;;32.78;17.65;;;3.80;99.90;;;2.65;100.00;97394.66;5089122;28;20499;-73
2022/12/07 00:03:11;;;;;;;38.00;19.35;;;3.90;99.90;;;2.66;100.00;97402.28;5088270;28;20405;-73
2022/12/07 00:05:36;;;;;;;31.50;17.25;;;3.90;99.90;;;2.65;100.00;97400.69;5089053;28;20414;-72
2022/12/07 00:08:03;;;;;;;32.83;18.23;;;3.90;99.90;;;2.58;100.00;97394.66;5071183;28;20401;-75
2022/12/07 00:10:28;;;;;;;34.45;17.92;;;3.80;99.90;;;2.59;100.00;97393.66;5091592;28;20394;-75
2022/12/07 00:12:54;;;;;;;34.20;17.55;;;3.80;99.90;;;2.60;100.00;97390.03;5091794;28;20404;-75
2022/12/07 00:15:20;;;;;;;35.67;18.20;;;3.80;99.90;;;2.61;100.00;97393.47;5092687;28;20449;-75
2022/12/07 00:17:46;;;;;;;33.13;17.98;;;3.80;99.90;;;2.59;100.00;97398.06;5092823;28;20878;-75
2022/12/07 00:20:13;;;;;;;34.45;18.90;;;3.80;99.90;;;2.64;100.00;97388.63;5092596;28;20405;-75
2022/12/07 00:22:39;;;;;;;32.85;18.48;;;3.80;99.90;;;2.65;100.00;97387.63;5092137;28;20407;-75
2022/12/07 00:25:05;;;;;;;39.58;20.52;;;3.90;99.90;;;2.62;100.00;97388.03;5092452;28;20759;-75
2022/12/07 00:27:31;;;;;;;31.35;17.60;;;3.90;99.90;;;2.64;100.00;97385.19;5092642;28;20763;-75
2022/12/07 00:29:57;;;;;;;33.65;18.30;;;3.90;99.90;;;2.64;100.00;97390.44;5092594;28;20398;-75
2022/12/07 00:32:23;;;;;;;34.33;19.83;;;3.90;99.90;;;2.58;100.00;97391.22;5092519;28;20879;-74
2022/12/07 00:34:49;;;;;;;37.17;20.05;;;3.80;99.90;;;2.65;100.00;97392.03;5091500;28;20449;-75
2022/12/07 00:37:16;;;;;;;33.97;18.92;;;3.90;99.90;;;2.61;100.00;97394.25;5092311;28;20439;-75
2022/12/07 00:39:42;;;;;;;31.13;17.73;;;3.90;99.90;;;2.64;100.00;97391.22;5092788;28;20401;-75
2022/12/07 00:42:08;;;;;;;38.75;20.95;;;3.90;99.90;;;2.60;100.00;97390.03;5092275;28;20397;-74
2022/12/07 00:44:34;;;;;;;38.23;20.13;;;3.90;99.90;;;2.59;100.00;97385.81;5091196;28;20569;-73
2022/12/07 00:46:59;;;;;;;40.72;21.27;;;3.80;99.90;;;2.60;100.00;97391.84;5092070;28;20409;-75
2022/12/07 00:49:25;;;;;;;44.05;21.95;;;3.80;99.90;;;2.59;100.00;97387.63;5092173;28;20412;-74
2022/12/07 00:51:51;;;;;;;44.47;22.17;;;3.80;99.90;;;2.59;100.00;97385.81;5092155;28;20446;-75
2022/12/07 00:54:18;;;;;;;42.53;22.25;;;3.80;99.90;;;2.58;100.00;97386.00;5091178;28;20432;-73
2022/12/07 00:56:44;;;;;;;43.50;22.15;;;3.80;99.90;;;2.57;100.00;97384.41;5092042;28;20809;-73
2022/12/07 00:59:14;;;;;;;48.28;23.70;;;3.80;99.90;;;2.56;100.00;97393.22;5091990;28;20401;-75
2022/12/07 01:01:41;;;;;;;38.63;21.25;;;3.80;99.90;;;2.56;100.00;97388.81;5091919;28;20436;-75
2022/12/07 01:04:07;;;;;;;45.17;22.05;;;3.80;99.90;;;2.55;100.00;97391.66;5090918;28;20399;-75
2022/12/07 01:06:33;;;;;;;44.25;22.55;;;3.80;99.90;;;2.55;100.00;97394.25;5091909;28;20832;-75
2022/12/07 01:09:00;;;;;;;43.17;21.77;;;3.80;99.90;;;2.49;100.00;97384.59;5091905;28;20394;-75
2022/12/07 01:11:29;;;;;;;44.53;22.35;;;3.70;99.90;;;2.45;100.00;97391.22;5091841;28;20850;-74
2022/12/07 01:13:57;;;;;;;42.40;21.60;;;3.70;99.90;;;2.45;100.00;97392.03;5090891;28;20423;-74
2022/12/07 01:16:27;;;;;;;40.45;20.98;;;3.70;99.90;;;2.44;100.00;97397.44;5091945;28;20446;-73
2022/12/07 01:18:55;;;;;;;44.40;23.35;;;3.70;99.90;;;2.42;100.00;97395.03;5091697;28;20437;-75
2022/12/07 01:21:24;;;;;;;45.10;22.23;;;3.70;99.90;;;2.41;100.00;97392.63;5091022;28;20635;-75
2022/12/07 01:23:51;;;;;;;48.00;23.35;;;3.70;99.90;;;2.37;100.00;97392.22;5090652;28;20435;-75
2022/12/07 01:26:19;;;;;;;45.67;22.83;;;3.60;99.90;;;2.36;100.00;97403.66;5091481;28;20396;-73
2022/12/07 01:28:47;;;;;;;50.33;23.30;;;3.60;99.90;;;2.36;100.00;97401.06;5091430;28;20429;-75
2022/12/07 01:31:15;;;;;;;54.38;24.15;;;3.60;99.90;;;2.35;100.00;97399.44;5091351;28;20536;-75
2022/12/07 01:33:43;;;;;;;48.75;22.75;;;3.60;99.90;;;2.34;100.00;97398.63;5090311;28;20811;-73
2022/12/07 01:36:15;;;;;;;55.47;24.77;;;3.60;99.90;;;2.33;100.00;97404.09;5091300;28;20421;-74
2022/12/07 01:38:41;;;;;;;52.78;24.42;;;3.60;99.90;;;2.33;100.00;97404.84;5091233;28;20398;-73
2022/12/07 01:41:08;;;;;;;61.15;26.40;;;3.60;99.90;;;2.38;100.00;97412.13;5091107;28;20759;-74
2022/12/07 01:43:34;;;;;;;63.67;27.17;;;3.60;99.90;;;2.33;100.00;97410.09;5090105;28;20410;-73
2022/12/07 01:46:03;;;;;;;51.65;25.70;;;3.60;99.90;;;2.30;100.00;97414.91;5090896;28;20763;-73
2022/12/07 01:48:34;;;;;;;51.93;24.37;;;3.60;99.90;;;2.25;100.00;97409.50;5091054;28;21010;-73
2022/12/07 01:51:07;;;;;;;49.53;23.20;;;3.50;99.90;;;2.22;100.00;97409.88;5091027;28;20483;-75
2022/12/07 01:53:38;;;;;;;58.15;24.98;;;3.50;99.90;;;2.18;100.00;97413.91;5090087;28;20398;-74
2022/12/07 01:56:08;;;;;;;44.97;22.40;;;3.40;99.90;;;2.19;100.00;97405.84;5090814;28;20462;-75
2022/12/07 01:58:34;;;;;;;47.10;21.83;;;3.40;99.90;;;2.19;100.00;97411.06;5090776;28;20405;-75
2022/12/07 02:01:01;;;;;;;49.27;22.37;;;3.50;99.90;;;2.20;100.00;97404.03;5090908;28;20425;-73
2022/12/07 02:03:35;;;;;;;61.72;26.17;;;3.50;99.90;;;2.21;100.00;97403.84;5089817;28;20409;-73
2022/12/07 02:06:00;;;;;;;55.72;24.27;;;3.50;99.90;;;2.22;100.00;97404.66;5072501;28;20417;-75
2022/12/07 02:08:27;;;;;;;55.93;24.17;;;3.50;99.90;;;2.21;100.00;97403.03;5090708;28;20450;-75
2022/12/07 02:10:52;;;;;;;53.42;23.73;;;3.50;99.90;;;2.20;100.00;97404.84;5090514;28;20942;-72
2022/12/07 02:13:23;;;;;;;51.23;22.27;;;3.50;99.90;;;2.20;100.00;97404.84;5089577;28;20418;-75
2022/12/07 02:16:13;;;;;;;56.90;25.67;;;3.50;99.90;;;2.16;100.00;97405.44;5090525;28;20409;-75
2022/12/07 02:18:56;;;;;;;50.00;23.80;;;3.40;99.90;;;2.10;100.00;97406.25;5072258;28;20911;-75
2022/12/07 02:21:32;;;;;;;55.05;24.77;;;3.40;99.90;;;2.09;100.00;97402.00;5090383;28;20486;-75
2022/12/07 02:24:29;;;;;;;51.85;23.63;;;3.40;99.90;;;2.08;100.00;97398.59;5089434;28;20422;-75
2022/12/07 02:27:37;;;;;;;52.28;23.33;;;3.40;99.90;;;2.08;100.00;97395.19;5090385;28;20473;-74
2022/12/07 02:30:07;;;;;;;50.47;23.70;;;3.30;99.90;;;2.03;100.00;97392.34;5071933;28;20469;-74
2022/12/07 02:32:43;;;;;;;47.83;22.33;;;3.30;99.90;;;2.02;100.00;97388.94;5089540;28;20393;-75
2022/12/07 02:35:17;;;;;;;51.78;23.15;;;3.30;99.90;;;2.00;100.00;97390.13;5089398;28;20460;-74
2022/12/07 02:38:02;;;;;;;43.17;21.33;;;3.30;99.90;;;1.99;100.00;97388.53;5090279;28;20479;-74
2022/12/07 02:40:34;;;;;;;48.67;22.70;;;3.30;99.90;;;1.97;100.00;97383.50;5090155;28;20425;-75
2022/12/07 02:43:08;;;;;;;37.28;20.00;;;3.20;99.90;;;1.98;100.00;97386.91;5089111;28;20459;-75
2022/12/07 02:45:39;;;;;;;49.10;22.05;;;3.30;99.90;;;2.00;100.00;97382.31;5090126;28;20483;-75
2022/12/07 02:48:08;;;;;;;43.90;21.38;;;3.30;99.90;;;1.99;100.00;97383.28;5090062;28;20404;-75
2022/12/07 02:50:34;;;;;;;48.07;21.73;;;3.30;99.90;;;1.94;100.00;97387.31;5089795;28;20899;-75
2022/12/07 02:53:00;;;;;;;38.65;19.60;;;3.20;99.90;;;1.95;100.00;97381.06;5088991;28;20413;-74
2022/12/07 02:55:33;;;;;;;37.42;18.42;;;3.20;99.90;;;1.95;100.00;97378.44;5089884;28;20475;-75
2022/12/07 02:58:22;;;;;;;38.95;20.25;;;3.20;99.90;;;1.99;100.00;97376.28;5089992;28;20395;-75
2022/12/07 03:01:02;;;;;;;48.80;21.67;;;3.20;99.90;;;1.96;100.00;97371.44;5089969;28;20398;-75
2022/12/07 03:03:28;;;;;;;41.60;20.63;;;3.20;99.90;;;1.95;100.00;97372.47;5089073;28;20495;-75
2022/12/07 03:06:11;;;;;;;40.65;20.15;;;3.20;99.90;;;1.97;100.00;97367.00;5089842;28;20485;-75
2022/12/07 03:08:49;;;;;;;41.90;21.10;;;3.20;99.90;;;2.06;100.00;97363.22;5089787;28;20883;-75
2022/12/07 03:11:25;;;;;;;38.22;19.90;;;3.30;99.90;;;2.06;100.00;97365.84;5089720;28;20461;-75
2022/12/07 03:14:00;;;;;;;49.03;22.08;;;3.30;99.90;;;2.02;100.00;97372.47;5071011;28;20457;-74
2022/12/07 03:16:31;;;;;;;53.33;22.50;;;3.30;99.90;;;1.98;100.00;97361.59;5089655;28;20443;-74
2022/12/07 03:19:01;;;;;;;42.70;20.90;;;3.30;99.90;;;2.03;100.00;97369.63;5089846;28;20429;-75
2022/12/07 03:21:34;;;;;;;38.92;19.83;;;3.30;99.90;;;2.03;100.00;97368.88;5089580;28;20441;-74
2022/12/07 03:24:07;;;;;;;38.83;20.92;;;3.30;99.90;;;2.20;100.00;97362.25;5089075;28;20398;-75
2022/12/07 03:26:41;;;;;;;43.72;21.13;;;3.40;99.90;;;2.20;100.00;97360.44;5089788;28;20402;-74
2022/12/07 03:29:13;;;;;;;34.93;19.53;;;3.40;99.90;;;2.21;100.00;97369.91;5089800;28;20451;-74
2022/12/07 03:31:45;;;;;;;38.67;19.97;;;3.50;99.90;;;2.14;100.00;97363.06;5089578;28;21290;-74
2022/12/07 03:34:16;;;;;;;41.13;20.50;;;3.40;99.90;;;2.06;100.00;97358.81;5088833;28;20847;-75
2022/12/07 03:36:47;;;;;;;33.95;19.08;;;3.30;99.90;;;2.01;100.00;97358.63;5089753;28;20417;-74
2022/12/07 03:39:22;;;;;;;40.88;21.23;;;3.30;99.90;;;1.97;100.00;97356.56;5089825;28;20401;-75
2022/12/07 03:41:49;;;;;;;38.22;19.70;;;3.20;99.90;;;1.92;100.00;97352.75;5089721;28;20531;-75
2022/12/07 03:44:16;;;;;;;34.92;19.42;;;3.20;99.90;;;1.90;100.00;97353.94;5089473;28;20442;-75
2022/12/07 03:46:49;;;;;;;37.83;20.92;;;3.20;99.90;;;1.84;100.00;97345.13;5093592;28;20404;-74
2022/12/07 03:49:23;;;;;;;37.30;19.55;;;3.10;99.90;;;1.94;100.00;97355.19;5093575;28;20393;-75
2022/12/07 03:51:57;;;;;;;40.83;20.93;;;3.10;99.90;;;1.85;100.00;97351.94;5093496;28;20591;-74
2022/12/07 03:54:31;;;;;;;39.63;20.50;;;3.10;99.90;;;1.81;100.00;97350.72;5092412;28;20538;-74
2022/12/07 03:56:58;;;;;;;39.80;20.60;;;3.10;99.90;;;1.79;100.00;97349.31;5093260;28;20973;-74
2022/12/07 03:59:26;;;;;;;39.70;20.80;;;3.00;99.90;;;1.76;100.00;97352.31;5093171;28;20840;-74
2022/12/07 04:01:56;;;;;;;34.80;19.73;;;3.00;99.90;;;1.80;100.00;97354.34;5093006;28;20385;-74
2022/12/07 04:04:22;;;;;;;38.30;20.30;;;3.00;99.90;;;1.79;100.00;97344.91;5092198;28;20402;-74
2022/12/07 04:06:49;;;;;;;37.88;20.23;;;3.10;99.90;;;1.77;100.00;97349.50;5093187;28;20501;-74
2022/12/07 04:09:15;;;;;;;45.25;21.55;;;3.00;99.90;;;1.75;100.00;97348.88;5093017;28;20496;-75
2022/12/07 04:11:41;;;;;;;43.13;21.92;;;3.00;99.90;;;1.73;100.00;97345.66;5092698;28;20398;-75
2022/12/07 04:14:19;;;;;;;35.08;20.08;;;3.00;99.90;;;1.69;100.00;97341.03;5092012;28;20398;-74
2022/12/07 04:16:45;;;;;;;33.13;18.08;;;3.00;99.90;;;1.72;100.00;97341.47;5092945;28;20425;-74
2022/12/07 04:19:12;;;;;;;33.55;19.13;;;3.00;99.90;;;1.71;100.00;97341.66;5092837;28;20404;-74
2022/12/07 04:21:38;;;;;;;34.47;18.88;;;3.00;99.90;;;1.71;100.00;97339.88;5092714;28;20394;-74
2022/12/07 04:24:05;;;;;;;38.13;19.13;;;3.00;99.90;;;1.77;100.00;97340.88;5091801;28;20398;-74
2022/12/07 04:26:31;;;;;;;32.05;18.67;;;3.00;99.90;;;1.81;100.00;97353.31;5092951;28;20592;-75
2022/12/07 04:28:57;;;;;;;32.90;18.27;;;3.10;99.90;;;1.85;100.00;97341.50;5092572;28;20398;-75
2022/12/07 04:31:23;;;;;;;30.33;17.23;;;3.00;99.90;;;1.82;100.00;97336.66;5092466;28;20487;-75
2022/12/07 04:33:48;;;;;;;31.23;17.27;;;3.00;99.90;;;1.74;100.00;97328.22;5091736;28;20845;-74
2022/12/07 04:36:16;;;;;;;23.83;13.90;;;3.00;99.90;;;1.73;100.00;97314.34;5092695;28;20421;-74
2022/12/07 04:38:42;;;;;;;20.52;13.55;;;2.90;99.90;;;1.61;100.00;97307.31;5092603;28;20402;-74
2022/12/07 04:41:09;;;;;;;22.33;14.43;;;2.90;99.90;;;1.58;100.00;97305.88;5092541;28;20487;-75
2022/12/07 04:43:35;;;;;;;23.52;14.77;;;2.90;99.90;;;1.58;100.00;97305.09;5103939;22;20495;-77
2022/12/07 04:46:02;;;;;;;24.50;15.05;;;2.80;99.90;;;1.55;100.00;97304.50;5092572;28;20394;-77
2022/12/07 04:48:28;;;;;;;24.40;14.67;;;2.80;99.90;;;1.48;100.00;97308.06;5092516;28;20790;-77
2022/12/07 04:50:54;;;;;;;25.88;15.45;;;2.70;99.90;;;1.48;100.00;97295.03;5090975;28;20448;-76
2022/12/07 04:53:21;;;;;;;23.65;14.60;;;2.70;99.90;;;1.51;100.00;97305.06;5091706;28;20394;-76
2022/12/07 04:55:47;;;;;;;22.50;12.57;;;2.70;99.90;;;1.51;100.00;97292.81;5091533;28;20414;-76
2022/12/07 04:58:14;;;;;;;18.65;11.93;;;2.70;99.90;;;1.43;100.00;97292.19;5092217;28;20416;-76
2022/12/07 05:00:40;;;;;;;19.50;12.00;;;2.70;99.90;;;1.49;100.00;97291.44;5091995;28;20402;-76
2022/12/07 05:03:06;;;;;;;17.70;10.70;;;2.70;99.90;;;1.41;100.00;97287.19;5091329;28;20413;-76
2022/12/07 05:05:32;;;;;;;18.05;11.20;;;2.60;99.90;;;1.46;100.00;97287.41;5092150;28;20401;-76
2022/12/07 05:07:58;;;;;;;18.88;11.90;;;2.70;99.90;;;1.43;100.00;97298.22;5092123;28;20449;-75
2022/12/07 05:10:25;;;;;;;14.57;10.05;;;2.70;99.90;;;1.51;100.00;97300.66;5091997;28;20394;-75
2022/12/07 05:12:51;;;;;;;17.02;10.88;;;2.70;99.90;;;1.52;100.00;97301.44;5091195;28;20409;-75
2022/12/07 05:15:18;;;;;;;19.75;12.32;;;2.80;99.90;;;1.50;100.00;97309.47;5091911;28;20418;-74
2022/12/07 05:17:43;;;;;;;18.20;11.67;;;2.80;99.90;;;1.43;100.00;97308.63;5092013;28;20394;-75
2022/12/07 05:20:11;;;;;;;17.95;10.75;;;2.70;99.90;;;1.51;100.00;97307.66;5091872;28;20850;-76
2022/12/07 05:22:36;;;;;;;18.63;11.02;;;2.80;99.90;;;1.61;100.00;97309.91;5091425;28;20437;-75
2022/12/07 05:25:03;;;;;;;18.05;10.75;;;2.90;99.90;;;1.42;100.00;97301.84;5072749;28;20417;-75
2022/12/07 05:27:30;;;;;;;16.13;10.07;;;2.70;99.90;;;1.32;100.00;97306.59;5091604;28;20837;-76
2022/12/07 05:29:56;;;;;;;16.10;10.32;;;2.60;99.90;;;1.25;100.00;97304.97;5084431;28;20406;-74
2022/12/07 05:32:22;;;;;;;20.83;11.45;;;2.60;99.90;;;1.14;100.00;97314.94;5088044;28;20806;-74
2022/12/07 05:34:48;;;;;;;17.80;10.93;;;2.50;99.90;;;1.04;100.00;97322.31;5090532;28;20764;-73
2022/12/07 05:37:13;;;;;;;20.98;12.60;;;2.40;99.90;;;0.96;100.00;97326.88;5091695;28;20493;-72
2022/12/07 05:39:42;;;;;;;24.05;13.40;;;2.30;99.90;;;0.88;100.00;97324.41;5090272;28;20402;-72
2022/12/07 05:42:12;;;;;;;22.33;12.90;;;2.30;99.90;;;0.79;100.00;97331.56;5091463;28;20921;-73
2022/12/07 05:44:40;;;;;;;21.63;12.50;;;2.20;99.90;;;0.73;100.00;97327.94;5090341;28;20428;-73
2022/12/07 05:47:07;;;;;;;23.33;13.13;;;2.10;99.90;;;0.66;100.00;97334.09;5091427;28;20394;-73
2022/12/07 05:49:33;;;;;;;24.42;13.13;;;2.00;99.90;;;0.60;100.00;97337.47;5091832;28;20394;-73
2022/12/07 05:51:59;;;;;;;23.45;12.75;;;2.00;99.90;;;0.58;100.00;97344.66;5091296;28;20406;-74
2022/12/07 05:54:25;;;;;;;26.73;14.15;;;2.00;99.90;;;0.55;100.00;97343.22;5090226;28;20725;-75
2022/12/07 05:56:51;;;;;;;24.45;13.35;;;1.90;99.90;;;0.53;100.00;97342.59;5086537;28;20414;-74
2022/12/07 05:59:23;;;;;;;27.10;14.02;;;1.90;99.90;;;0.49;100.00;97343.97;5084498;28;20927;-74
2022/12/07 06:01:51;;;;;;;26.77;13.23;;;1.80;99.90;;;0.48;100.00;97338.97;5086543;28;20398;-74
2022/12/07 06:04:17;;;;;;;27.45;14.20;;;1.80;99.90;;;0.44;100.00;97335.94;5089588;28;20875;-73
2022/12/07 06:06:43;;;;;;;24.77;13.73;;;1.80;99.90;;;0.51;100.00;97328.97;5091048;28;20938;-74
2022/12/07 06:09:09;;;;;;;25.27;13.38;;;1.90;99.90;;;0.55;100.00;97334.59;5090942;28;20394;-74
2022/12/07 06:14:20;;;;;;;26.63;13.47;;;2.00;99.90;;;0.69;100.00;97328.50;5090072;28;20485;-71
2022/12/07 06:16:46;;;;;;;23.60;12.95;;;2.00;99.90;;;0.73;100.00;97327.94;5090598;28;20439;-72
2022/12/07 06:19:13;;;;;;;23.95;12.90;;;2.10;99.90;;;0.78;100.00;97332.56;5090758;28;20924;-73
2022/12/07 06:21:39;;;;;;;27.35;13.98;;;2.10;99.90;;;0.80;100.00;97333.19;5090772;28;20623;-73
2022/12/07 06:24:06;;;;;;;25.95;13.50;;;2.10;99.90;;;0.83;100.00;97353.63;5089722;28;20481;-73
2022/12/07 06:26:32;;;;;;;23.38;13.23;;;2.20;99.90;;;0.87;100.00;97361.91;5090681;28;20401;-74
2022/12/07 06:28:58;;;;;;;24.20;12.73;;;2.20;99.90;;;0.88;100.00;97348.69;5090650;28;20759;-74
2022/12/07 06:31:23;;;;;;;28.23;13.63;;;2.20;99.90;;;0.86;100.00;97345.44;5090439;28;20423;-74
2022/12/07 06:33:49;;;;;;;24.85;12.70;;;2.20;99.90;;;0.89;100.00;97341.66;5089701;28;20485;-74
2022/12/07 06:36:16;;;;;;;25.45;12.90;;;2.20;99.90;;;0.89;100.00;97341.66;5090501;28;20409;-74
2022/12/07 06:38:42;;;;;;;26.02;13.60;;;2.20;99.90;;;0.95;100.00;97348.72;5090680;28;20409;-73
2022/12/07 06:41:08;;;;;;;25.67;13.80;;;2.30;99.90;;;0.95;100.00;97340.91;5090341;28;20398;-74
2022/12/07 06:43:34;;;;;;;25.85;13.32;;;2.30;99.90;;;0.98;100.00;97340.50;5089480;28;20806;-74
2022/12/07 06:46:00;;;;;;;20.47;12.83;;;2.30;99.90;;;0.92;100.00;97339.47;5090667;28;20461;-74
2022/12/07 06:48:26;;;;;;;22.00;12.13;;;2.20;99.90;;;0.98;100.00;97338.69;5089887;28;20398;-73
2022/12/07 06:50:52;;;;;;;20.53;11.30;;;2.30;99.90;;;0.95;100.00;97331.28;5087420;28;20454;-74
2022/12/07 06:53:19;;;;;;;18.48;11.13;;;2.20;99.90;;;0.99;100.00;97329.09;5076059;28;20399;-73
2022/12/07 06:55:45;;;;;;;15.98;10.02;;;2.30;99.90;;;1.00;100.00;97331.50;5086844;28;20639;-74
2022/12/07 06:58:11;;;;;;;20.50;11.10;;;2.30;99.90;;;0.98;100.00;97340.50;5089984;28;20406;-74
2022/12/07 07:00:37;;;;;;;16.75;10.25;;;2.30;99.90;;;1.08;100.00;97340.97;5089854;28;20454;-74
2022/12/07 07:03:03;;;;;;;16.40;10.27;;;2.40;99.90;;;1.02;100.00;97342.56;5089018;28;20435;-74
2022/12/07 07:05:29;;;;;;;17.33;10.77;;;2.30;99.90;;;1.05;100.00;97347.38;5089742;28;20895;-74
2022/12/07 07:07:55;;;;;;;15.97;10.13;;;2.30;99.90;;;1.02;100.00;97349.56;5089726;28;20497;-74
2022/12/07 07:10:22;;;;;;;18.15;10.73;;;2.30;99.90;;;0.99;100.00;97355.94;5089650;28;21428;-74
2022/12/07 07:12:48;;;;;;;15.73;9.93;;;2.30;99.90;;;0.96;100.00;97352.94;5088711;28;20402;-74
2022/12/07 07:15:14;;;;;;;16.17;10.60;;;2.30;99.90;;;0.97;100.00;97347.53;5085415;28;20955;-76
2022/12/07 07:17:40;;;;;;;16.52;9.60;;;2.30;99.90;;;0.99;100.00;97348.13;5088682;28;20405;-75
2022/12/07 07:20:07;;;;;;;14.75;9.02;;;2.30;99.90;;;1.04;100.00;97351.00;5093261;28;20406;-76
2022/12/07 07:22:33;;;;;;;15.07;9.13;;;2.30;99.90;;;1.08;100.00;97357.41;5087834;28;20418;-75
2022/12/07 07:24:59;;;;;;;17.83;9.68;;;2.40;99.90;;;0.99;100.00;97355.94;5091240;28;20454;-74
2022/12/07 07:27:26;;;;;;;14.67;8.83;;;2.30;99.90;;;1.07;100.00;97360.22;5100787;28;20404;-75
2022/12/07 07:29:52;;;;;;;14.00;8.85;;;2.40;99.90;;;1.16;100.00;97357.28;5097143;28;20401;-74
2022/12/07 07:32:18;;;;;;;14.03;8.97;;;2.50;99.90;;;1.16;100.00;97361.69;5095851;28;20416;-75
2022/12/07 07:34:44;;;;;;;12.43;8.23;;;2.40;99.90;;;1.20;100.00;97354.28;5094588;28;20394;-75
2022/12/07 07:37:12;;;;;;;14.80;8.88;;;2.40;99.90;;;1.22;100.00;97357.50;5077752;28;20408;-76
2022/12/07 07:39:38;;;;;;;14.10;8.75;;;2.50;99.90;;;1.20;100.00;97362.91;5095674;28;20409;-76
2022/12/07 07:42:04;;;;;;;13.80;9.07;;;2.50;99.90;;;1.31;100.00;97351.94;5095778;28;20406;-74
2022/12/07 07:44:32;;;;;;;13.95;8.48;;;2.60;99.90;;;1.29;100.00;97366.16;5095033;28;20401;-73
2022/12/07 07:46:57;;;;;;;16.70;8.80;;;2.60;99.90;;;1.29;100.00;97371.34;5095886;28;20438;-73
2022/12/07 07:49:23;;;;;;;14.10;8.77;;;2.50;99.90;;;1.30;100.00;97371.16;5095880;28;20406;-75
2022/12/07 07:51:49;;;;;;;12.85;8.20;;;2.60;99.90;;;1.29;100.00;97366.94;5095528;28;20390;-73
2022/12/07 07:54:15;;;;;;;11.30;8.00;;;2.50;99.90;;;1.24;100.00;97371.13;5094890;28;20597;-73
2022/12/07 07:56:41;;;;;;;12.20;8.38;;;2.50;99.90;;;1.23;100.00;97375.53;5095610;28;20409;-74
2022/12/07 07:59:08;;;;;;;12.38;8.10;;;2.50;99.90;;;1.35;100.00;97368.00;5095846;28;20450;-75
2022/12/07 08:01:35;;;;;;;12.68;8.40;;;2.60;99.90;;;1.30;100.00;97372.97;5094818;28;20409;-78
2022/12/07 08:04:01;;;;;;;13.75;8.30;;;2.60;99.90;;;1.37;100.00;97371.22;5089832;28;20984;-75
2022/12/07 08:06:27;;;;;;;15.53;8.93;;;2.60;99.90;;;1.33;100.00;97370.00;5094507;28;20405;-76
2022/12/07 08:08:53;;;;;;;14.13;9.18;;;2.60;99.90;;;1.31;100.00;97369.38;5095745;28;20894;-75
2022/12/07 08:11:18;;;;;;;16.63;9.48;;;2.60;99.90;;;1.37;100.00;97372.00;5093523;28;20492;-75
2022/12/07 08:13:46;;;;;;;14.65;8.52;;;2.60;99.90;;;1.37;100.00;97364.19;5090796;28;20490;-79
2022/12/07 08:16:14;;;;;;;13.95;9.25;;;2.70;99.90;;;1.42;100.00;97372.25;5092940;28;20419;-78
2022/12/07 08:18:42;;;;;;;13.32;8.70;;;2.70;99.90;;;1.50;100.00;97366.84;5095207;28;20397;-76
2022/12/07 08:21:12;;;;;;;15.25;9.45;;;2.80;99.90;;;1.66;100.00;97373.53;5095661;28;20416;-80
2022/12/07 08:23:38;;;;;;;14.63;8.75;;;2.90;99.90;;;1.60;100.00;97374.31;5094776;28;20805;-77
2022/12/07 08:26:08;;;;;;;12.25;8.48;;;2.90;99.90;;;1.73;100.00;97373.59;5095628;28;20398;-76
2022/12/07 08:28:34;;;;;;;14.55;8.50;;;2.90;99.90;;;1.67;100.00;97382.19;5095722;28;20925;-75
2022/12/07 08:31:00;;;;;;;12.17;7.73;;;2.90;99.90;;;1.71;100.00;97376.38;5093895;28;20449;-79
2022/12/07 08:33:26;;;;;;;11.95;8.00;;;3.00;99.90;;;1.79;100.00;97380.63;5105540;28;20426;-75
2022/12/07 08:35:54;;;;;;;11.35;7.78;;;3.10;99.90;;;2.00;100.00;97384.91;5088823;28;20480;-77
2022/12/07 08:38:20;;;;;;;14.88;8.25;;;3.20;99.90;;;1.94;100.00;97384.69;5092416;28;20413;-75
2022/12/07 08:40:54;;;;;;;10.98;7.75;;;3.20;99.90;;;2.01;100.00;97384.72;5092371;28;20409;-74
2022/12/07 08:43:20;;;;;;;11.27;7.13;;;3.30;99.90;;;1.90;100.00;97387.88;5091163;28;20435;-76
2022/12/07 08:45:47;;;;;;;10.37;7.13;;;3.20;99.90;;;2.07;100.00;97388.34;5092854;28;20394;-74
2022/12/07 08:48:17;;;;;;;10.85;7.32;;;3.30;99.90;;;2.15;100.00;97380.31;5092278;28;20442;-75
2022/12/07 08:50:43;;;;;;;10.25;6.75;;;3.40;99.90;;;2.05;100.00;97387.72;5092055;28;21069;-73
2022/12/07 08:53:10;;;;;;;8.63;6.65;;;3.30;99.90;;;2.17;100.00;97394.00;5090991;28;20740;-75
2022/12/07 08:55:36;;;;;;;12.40;7.33;;;3.40;99.90;;;2.24;100.00;97389.59;5092055;28;20498;-74
2022/12/07 08:58:02;;;;;;;11.07;7.20;;;3.50;99.90;;;2.43;100.00;97388.00;5092104;28;20390;-78
2022/12/07 09:00:28;;;;;;;14.05;8.30;;;3.60;99.90;;;2.57;100.00;97387.81;5092010;28;20397;-77
2022/12/07 09:02:54;;;;;;;11.48;7.50;;;3.80;99.90;;;2.47;100.00;97384.00;5091377;28;21224;-78
2022/12/07 09:05:21;;;;;;;11.00;7.03;;;3.70;99.90;;;2.35;100.00;97391.59;5091841;28;20416;-77
2022/12/07 09:07:54;;;;;;;10.98;7.47;;;3.60;99.90;;;2.53;100.00;97384.00;5091935;28;20408;-78
2022/12/07 09:10:22;;;;;;;13.35;8.05;;;3.70;99.90;;;2.56;100.00;97385.41;5091991;28;20449;-80
2022/12/07 09:12:48;;;;;;;12.80;7.60;;;3.70;99.90;;;2.62;100.00;97380.19;5091616;28;20475;-77
2022/12/07 09:15:14;;;;;;;13.45;7.85;;;3.80;99.90;;;2.55;100.00;97387.22;5092396;28;20453;-74
2022/12/07 09:17:40;;;;;;;13.23;7.05;;;3.80;99.90;;;2.50;100.00;97383.59;5091676;28;20407;-74
2022/12/07 09:20:07;;;;;;;10.15;6.97;;;3.70;99.90;;;2.64;100.00;97387.81;5091222;28;20402;-74
2022/12/07 09:22:33;;;;;;;12.00;7.60;;;3.80;99.90;;;2.62;100.00;97388.03;5091235;28;20703;-74
2022/12/07 09:24:59;;;;;;;11.75;7.10;;;3.80;99.90;;;2.77;100.00;97385.22;5090360;28;20399;-77
2022/12/07 09:27:27;;;;;;;11.32;6.90;;;3.90;99.90;;;2.77;100.00;97384.41;5091712;28;20394;-77
2022/12/07 09:29:53;;;;;;;10.15;6.70;;;4.00;99.90;;;2.79;100.00;97391.03;5091783;28;20405;-77
2022/12/07 09:32:19;;;;;;;11.15;6.85;;;4.00;99.90;;;2.90;100.00;97384.41;5091446;28;20441;-76
2022/12/07 09:34:45;;;;;;;10.82;6.72;;;4.00;99.90;;;2.91;100.00;97381.59;5090387;28;20868;-77
2022/12/07 09:37:11;;;;;;;9.18;6.43;;;4.10;99.90;;;2.89;100.00;97378.38;5091271;28;20447;-76
2022/12/07 09:39:38;;;;;;;10.85;6.85;;;4.00;99.90;;;2.87;100.00;97387.41;5073175;28;20420;-77
2022/12/07 09:42:06;;;;;;;9.30;6.35;;;4.10;99.90;;;2.94;100.00;97378.56;5072532;28;20437;-75
2022/12/07 09:44:34;;;;;;;11.02;6.95;;;4.10;99.90;;;2.89;100.00;97382.78;5090398;28;20759;-78
2022/12/07 09:47:01;;;;;;;10.55;6.60;;;4.10;99.90;;;3.14;100.00;97377.75;5091149;28;20737;-79
2022/12/07 09:49:31;;;;;;;12.98;7.18;;;4.20;99.90;;;3.23;100.00;97374.72;5094124;28;20481;-78
2022/12/07 09:52:03;;;;;;;10.65;6.60;;;4.40;99.90;;;3.17;100.00;97375.50;5091078;28;20434;-78
2022/12/07 09:54:30;;;;;;;11.05;6.50;;;4.40;99.90;;;3.22;100.00;97367.06;5090337;28;20901;-77
2022/12/07 09:56:56;;;;;;;12.48;5.82;;;4.40;99.90;;;3.50;100.00;97370.19;5090969;28;20490;-77
2022/12/07 09:59:22;;;;;;;9.57;5.97;;;4.60;99.90;;;3.45;100.00;97375.25;5091197;28;20398;-79
2022/12/07 10:01:50;;;;;;;8.27;5.10;;;4.60;99.90;;;3.35;100.00;97365.22;5072777;28;20433;-77
2022/12/07 10:04:20;;;;;;;10.15;6.32;;;4.50;99.90;;;3.27;100.00;97368.06;5090053;28;20970;-77
2022/12/07 10:06:47;;;;;;;9.90;5.80;;;4.40;99.90;;;3.28;100.00;97353.97;5090545;28;20466;-75
2022/12/07 10:09:16;;;;;;;10.05;6.20;;;4.50;99.90;;;3.30;100.00;97357.19;5090589;28;20410;-75
2022/12/07 10:12:04;;;;;;;10.05;5.82;;;4.50;99.90;;;3.27;100.00;97349.75;5090488;28;20398;-74
2022/12/07 10:14:33;;;;;;;7.72;5.32;;;4.40;99.90;;;3.31;100.00;97345.69;5089720;28;20496;-75
2022/12/07 10:17:01;;;;;;;6.50;4.97;;;4.50;99.90;;;3.28;100.00;97343.50;5090566;28;20460;-76
2022/12/07 10:19:30;;;;;;;6.78;5.03;;;4.50;99.90;;;3.37;100.00;97342.28;5090488;28;20402;-75
2022/12/07 10:22:10;;;;;;;9.75;5.30;;;4.50;99.90;;;3.26;100.00;97339.47;5090370;28;20529;-74